Time;durP1;ratioP1;P1;durP2;ratioP2;P2;SDS_P1;SDS_P2;PMS_P1;PMS_P2;Temp;Humidity;BMP_temperature;BMP_pressure;BME280_temperature;BME280_humidity;BME280_pressure;Samples;Min_cycle;Max_cycle;Signal;HPM_P1;HPM_P2
2023/06/22 00:00:49;;;;;;;38.38;32.42;;;18.00;99.90;;;;;;4962979;28;20047;-92
2023/06/22 00:03:15;;;;;;;37.05;30.85;;;18.00;99.90;;;;;;4938782;29;20050;-92
2023/06/22 00:05:41;;;;;;;39.45;33.92;;;18.00;99.90;;;;;;4955831;28;20047;-92
2023/06/22 00:08:07;;;;;;;42.88;34.38;;;17.90;99.90;;;;;;4939092;29;20549;-92
2023/06/22 00:10:32;;;;;;;36.53;32.60;;;17.90;99.90;;;;;;4936143;29;20047;-92
2023/06/22 00:12:58;;;;;;;38.15;31.63;;;17.90;99.90;;;;;;4960625;28;20581;-92
2023/06/22 00:15:24;;;;;;;37.88;33.63;;;17.90;99.90;;;;;;4953132;28;20070;-91
2023/06/22 00:17:51;;;;;;;42.75;33.88;;;17.90;99.90;;;;;;4938943;29;20043;-92
2023/06/22 00:20:18;;;;;;;37.72;33.45;;;17.90;99.90;;;;;;4938450;29;20043;-91
2023/06/22 00:22:44;;;;;;;38.75;33.03;;;17.70;99.90;;;;;;4938200;29;20380;-92
2023/06/22 00:25:10;;;;;;;41.97;36.33;;;17.70;99.90;;;;;;4934231;29;20043;-92
2023/06/22 00:27:36;;;;;;;42.00;37.42;;;17.70;99.90;;;;;;4937444;29;20121;-92
2023/06/22 00:30:03;;;;;;;40.30;34.85;;;17.70;99.90;;;;;;4936802;29;20122;-92
2023/06/22 00:32:28;;;;;;;45.22;35.70;;;17.70;99.90;;;;;;4936975;29;20126;-92
2023/06/22 00:34:54;;;;;;;45.92;35.90;;;17.60;99.90;;;;;;4953725;29;20235;-92
2023/06/22 00:37:22;;;;;;;45.00;37.22;;;17.60;99.90;;;;;;4937574;29;20043;-91
2023/06/22 00:39:48;;;;;;;41.15;35.55;;;17.50;99.90;;;;;;4936876;29;20039;-91
2023/06/22 00:42:14;;;;;;;40.53;35.25;;;17.40;99.90;;;;;;4954749;28;20039;-92
2023/06/22 00:44:40;;;;;;;43.03;36.63;;;17.40;99.90;;;;;;4935476;29;20581;-92
2023/06/22 00:47:06;;;;;;;46.85;35.20;;;17.40;99.90;;;;;;4953927;29;20039;-92
2023/06/22 00:49:32;;;;;;;47.08;36.88;;;17.40;99.90;;;;;;4953785;28;20045;-92
2023/06/22 00:51:58;;;;;;;38.97;34.60;;;17.40;99.90;;;;;;4954149;28;20648;-93
2023/06/22 00:54:24;;;;;;;49.63;36.75;;;17.30;99.90;;;;;;4951018;29;20035;-92
2023/06/22 00:56:56;;;;;;;36.85;32.83;;;17.30;99.90;;;;;;4949753;29;20039;-91
2023/06/22 00:59:23;;;;;;;39.47;33.50;;;17.30;99.90;;;;;;4938054;29;20071;-91
2023/06/22 01:01:48;;;;;;;41.65;35.00;;;17.20;99.90;;;;;;4938758;29;20130;-91
2023/06/22 01:04:15;;;;;;;44.50;33.97;;;17.30;99.90;;;;;;4953183;28;20519;-91
2023/06/22 01:07:08;;;;;;;39.75;34.30;;;17.20;99.90;;;;;;4936578;29;20049;-91
2023/06/22 01:09:49;;;;;;;42.15;35.35;;;17.10;99.90;;;;;;4936274;29;20043;-92
2023/06/22 01:12:16;;;;;;;43.40;37.00;;;17.20;99.90;;;;;;4933389;29;20134;-92
2023/06/22 01:14:57;;;;;;;44.17;36.53;;;17.10;99.90;;;;;;4952862;28;20049;-91
2023/06/22 01:17:24;;;;;;;41.17;36.65;;;17.10;99.90;;;;;;4943893;28;20042;-92
2023/06/22 01:19:57;;;;;;;42.20;37.45;;;17.10;99.90;;;;;;4959413;28;20040;-91
2023/06/22 01:22:28;;;;;;;43.63;38.63;;;17.10;99.90;;;;;;4962963;28;20085;-91
2023/06/22 01:25:03;;;;;;;40.58;36.05;;;17.10;99.90;;;;;;4952958;28;20041;-92
2023/06/22 01:27:56;;;;;;;46.65;37.30;;;17.10;99.90;;;;;;4936654;29;20482;-91
2023/06/22 01:30:22;;;;;;;41.77;36.87;;;17.00;99.90;;;;;;4925033;29;20035;-92
2023/06/22 01:32:49;;;;;;;44.92;38.63;;;17.00;99.90;;;;;;4936494;29;20047;-92
2023/06/22 01:35:16;;;;;;;44.28;36.17;;;16.90;99.90;;;;;;4944736;28;20406;-92
2023/06/22 01:37:42;;;;;;;46.85;39.30;;;16.90;99.90;;;;;;4958276;28;20062;-91
2023/06/22 01:40:08;;;;;;;44.28;38.90;;;16.90;99.90;;;;;;4936211;29;20047;-91
2023/06/22 01:42:36;;;;;;;47.08;41.42;;;16.90;99.90;;;;;;4936778;29;20039;-91
2023/06/22 01:45:02;;;;;;;48.80;38.55;;;16.90;99.90;;;;;;4959790;28;20062;-91
2023/06/22 01:47:28;;;;;;;42.45;37.83;;;16.90;99.90;;;;;;4941572;28;20039;-91
2023/06/22 01:49:54;;;;;;;46.47;40.13;;;16.80;99.90;;;;;;4964726;29;20044;-91
2023/06/22 01:52:21;;;;;;;42.10;36.83;;;16.80;99.90;;;;;;4949417;29;20071;-92
2023/06/22 01:54:48;;;;;;;41.00;36.33;;;16.70;99.90;;;;;;4945289;28;20046;-91
2023/06/22 01:57:14;;;;;;;46.35;38.95;;;16.80;99.90;;;;;;4938019;28;20043;-91
2023/06/22 02:00:01;;;;;;;44.05;38.08;;;16.80;99.90;;;;;;4960231;28;20070;-91
2023/06/22 02:02:44;;;;;;;39.40;35.13;;;16.70;99.90;;;;;;4942704;28;20074;-92
2023/06/22 02:05:16;;;;;;;45.40;38.13;;;16.70;99.90;;;;;;4959757;28;20094;-92
2023/06/22 02:07:46;;;;;;;40.88;35.55;;;16.60;99.90;;;;;;4936557;29;20046;-92
2023/06/22 02:10:15;;;;;;;43.95;38.05;;;16.60;99.90;;;;;;4936378;28;20047;-92
2023/06/22 02:12:43;;;;;;;49.05;39.25;;;16.60;99.90;;;;;;4936051;29;20057;-93
2023/06/22 02:15:12;;;;;;;44.63;39.17;;;16.60;99.90;;;;;;4936911;29;20054;-92
2023/06/22 02:17:38;;;;;;;50.15;40.97;;;16.60;99.90;;;;;;4936023;29;20079;-92
2023/06/22 02:20:08;;;;;;;46.35;39.40;;;16.60;99.90;;;;;;4955988;28;20054;-92
2023/06/22 02:22:34;;;;;;;48.13;41.03;;;16.60;99.90;;;;;;4945346;29;20058;-92
2023/06/22 02:25:00;;;;;;;50.88;44.80;;;16.60;99.90;;;;;;4935210;29;20053;-92
2023/06/22 02:27:26;;;;;;;55.10;45.90;;;16.60;99.90;;;;;;4936929;28;20071;-92
2023/06/22 02:29:51;;;;;;;48.90;41.00;;;16.60;99.90;;;;;;4955167;28;20044;-91
2023/06/22 02:32:17;;;;;;;48.25;38.60;;;16.60;99.90;;;;;;4938773;29;20768;-92
2023/06/22 02:34:47;;;;;;;46.53;40.45;;;16.50;99.90;;;;;;4956087;29;20051;-91
2023/06/22 02:37:14;;;;;;;41.40;36.25;;;16.40;99.90;;;;;;4940379;29;20146;-91
2023/06/22 02:39:40;;;;;;;43.08;37.30;;;16.30;99.90;;;;;;4956070;29;20050;-92
2023/06/22 02:42:06;;;;;;;44.65;37.28;;;16.40;99.90;;;;;;4936367;29;20043;-91
2023/06/22 02:44:32;;;;;;;39.85;35.53;;;16.40;99.90;;;;;;4946598;29;20051;-91
2023/06/22 02:46:58;;;;;;;41.53;34.05;;;16.30;99.90;;;;;;4964024;28;20039;-92
2023/06/22 02:49:24;;;;;;;45.42;40.45;;;16.30;99.90;;;;;;4950022;29;20072;-92
2023/06/22 02:51:50;;;;;;;49.80;42.88;;;16.40;99.90;;;;;;4967192;28;20039;-93
2023/06/22 02:54:16;;;;;;;51.03;44.03;;;16.40;99.90;;;;;;4940351;29;20097;-92
2023/06/22 02:56:43;;;;;;;48.33;42.88;;;16.40;99.90;;;;;;4939706;29;20102;-93
2023/06/22 02:59:10;;;;;;;42.22;37.78;;;16.40;99.90;;;;;;4944526;28;20047;-91
2023/06/22 03:01:39;;;;;;;44.30;39.40;;;16.40;99.90;;;;;;4948502;29;20042;-92
2023/06/22 03:04:07;;;;;;;44.72;39.85;;;16.30;99.90;;;;;;4943943;28;20532;-93
2023/06/22 03:06:33;;;;;;;47.42;41.00;;;16.40;99.90;;;;;;4957037;28;20051;-93
2023/06/22 03:09:00;;;;;;;45.97;40.25;;;16.30;99.90;;;;;;4939368;29;20251;-92
2023/06/22 03:11:26;;;;;;;50.15;44.67;;;16.30;99.90;;;;;;4939962;29;20070;-92
2023/06/22 03:13:52;;;;;;;48.83;42.78;;;16.30;99.90;;;;;;4937984;29;20141;-93
2023/06/22 03:16:19;;;;;;;45.55;40.60;;;16.30;99.90;;;;;;4938277;29;20090;-92
2023/06/22 03:18:45;;;;;;;48.58;43.30;;;16.30;99.90;;;;;;4939347;29;20042;-93
2023/06/22 03:21:11;;;;;;;44.13;39.53;;;16.30;99.90;;;;;;4938014;29;20058;-92
2023/06/22 03:23:36;;;;;;;44.95;40.20;;;16.30;99.90;;;;;;4954375;29;20035;-93
2023/06/22 03:26:03;;;;;;;45.38;40.58;;;16.40;99.90;;;;;;4939623;29;20043;-93
2023/06/22 03:28:30;;;;;;;46.08;41.17;;;16.30;99.90;;;;;;4939678;29;20310;-92
2023/06/22 03:30:57;;;;;;;55.08;47.15;;;16.40;99.90;;;;;;4955307;29;20118;-92
2023/06/22 03:33:23;;;;;;;57.42;50.80;;;16.40;99.90;;;;;;4938355;29;20039;-92
2023/06/22 03:35:49;;;;;;;46.03;41.30;;;16.40;99.90;;;;;;4939372;29;20114;-92
2023/06/22 03:38:16;;;;;;;50.70;45.33;;;16.50;99.90;;;;;;4954996;28;20044;-93
2023/06/22 03:40:42;;;;;;;56.85;50.88;;;16.40;99.90;;;;;;4949808;29;20047;-93
2023/06/22 03:43:07;;;;;;;52.40;45.92;;;16.40;99.90;;;;;;4965807;29;20050;-93
2023/06/22 03:45:33;;;;;;;50.15;43.03;;;16.50;99.90;;;;;;4940939;29;20175;-92
2023/06/22 03:48:00;;;;;;;55.50;49.25;;;16.50;99.90;;;;;;4936658;29;20040;-92
2023/06/22 03:50:25;;;;;;;51.95;46.22;;;16.60;99.90;;;;;;4940042;29;20043;-92
2023/06/22 03:52:52;;;;;;;48.55;43.15;;;16.60;99.90;;;;;;4941076;28;20151;-92
2023/06/22 03:55:19;;;;;;;56.92;47.50;;;16.70;99.90;;;;;;4954089;28;20134;-92
2023/06/22 03:58:23;;;;;;;;;;;;;;;;;;;;;
2023/06/22 04:00:51;;;;;;;55.50;47.53;;;16.80;99.90;;;;;;4954053;28;20053;-92
2023/06/22 04:03:20;;;;;;;51.63;45.28;;;16.80;99.90;;;;;;4938183;29;20043;-92
2023/06/22 04:05:46;;;;;;;50.88;45.50;;;16.80;99.90;;;;;;4967861;28;20035;-90
2023/06/22 04:08:13;;;;;;;50.78;45.33;;;16.90;99.90;;;;;;4933521;29;20039;-90
2023/06/22 04:10:39;;;;;;;50.00;44.90;;;16.90;99.90;;;;;;4951289;28;20043;-92
2023/06/22 04:13:05;;;;;;;51.85;44.65;;;17.00;99.90;;;;;;4954698;28;20039;-92
2023/06/22 04:15:31;;;;;;;48.22;43.20;;;17.10;99.90;;;;;;4954349;29;20039;-93
2023/06/22 04:17:57;;;;;;;41.60;37.13;;;17.20;99.90;;;;;;4937652;29;20078;-91
2023/06/22 04:20:25;;;;;;;44.92;40.03;;;17.20;99.90;;;;;;4953854;29;20069;-95
2023/06/22 04:22:53;;;;;;;45.20;40.33;;;17.30;99.90;;;;;;4938909;28;20039;-95
2023/06/22 04:25:19;;;;;;;45.60;40.90;;;17.40;99.90;;;;;;4939909;29;20066;-94
2023/06/22 04:27:46;;;;;;;43.33;38.63;;;17.40;99.90;;;;;;4969511;28;20134;-94
2023/06/22 04:30:16;;;;;;;41.55;37.05;;;17.40;99.90;;;;;;4956151;29;20031;-94
2023/06/22 04:32:42;;;;;;;43.88;39.13;;;17.50;99.90;;;;;;4937168;28;20051;-93
2023/06/22 04:35:08;;;;;;;45.63;40.63;;;17.50;99.90;;;;;;4948945;29;20066;-93
2023/06/22 04:37:34;;;;;;;50.85;45.35;;;17.50;99.90;;;;;;4972237;29;20050;-96
2023/06/22 04:40:00;;;;;;;45.78;40.78;;;17.70;99.90;;;;;;4945298;28;20039;-94
2023/06/22 04:42:29;;;;;;;49.90;41.25;;;17.80;99.90;;;;;;4958711;28;20050;-96
2023/06/22 04:44:57;;;;;;;45.33;39.42;;;17.80;99.90;;;;;;4959331;28;20047;-96
2023/06/22 07:08:22;;;;;;;1969.07;999.90;;;28.50;97.90;;;;;;610298;23;21748;-86
2023/06/22 07:10:48;;;;;;;1999.90;999.90;;;28.40;98.50;;;;;;4995514;28;20060;-89
2023/06/22 07:13:13;;;;;;;1963.55;999.90;;;28.30;98.70;;;;;;4997333;28;20041;-88
2023/06/22 07:15:40;;;;;;;1981.82;999.90;;;28.20;99.40;;;;;;5011768;28;20045;-87
2023/06/22 07:18:05;;;;;;;1999.90;999.90;;;28.20;99.10;;;;;;5013098;28;20044;-86
2023/06/22 07:20:31;;;;;;;1983.57;999.90;;;28.20;98.20;;;;;;5031372;28;20041;-89
2023/06/22 07:22:58;;;;;;;1999.90;999.90;;;28.20;98.00;;;;;;5001385;28;20110;-90
2023/06/22 07:25:23;;;;;;;1999.90;999.90;;;28.50;98.20;;;;;;5043916;28;20093;-92
2023/06/22 07:28:04;;;;;;;1999.90;999.90;;;28.40;98.20;;;;;;5052484;28;20080;-91
2023/06/22 07:30:31;;;;;;;1999.90;999.90;;;28.20;97.70;;;;;;5032169;28;20073;-92
2023/06/22 07:32:58;;;;;;;1830.25;999.90;;;27.70;97.40;;;;;;5012431;28;20128;-94
2023/06/22 07:35:24;;;;;;;1860.65;999.90;;;27.30;97.50;;;;;;4998541;28;20056;-94
2023/06/22 07:37:50;;;;;;;1704.32;999.90;;;26.90;97.70;;;;;;5013762;28;20045;-89
2023/06/22 07:40:16;;;;;;;1655.00;999.90;;;26.60;98.80;;;;;;5000223;28;20037;-90
2023/06/22 07:42:42;;;;;;;1646.40;999.90;;;26.80;99.40;;;;;;5021893;28;20036;-89
2023/06/22 07:45:08;;;;;;;1549.43;999.90;;;27.50;99.60;;;;;;5023213;28;20041;-88
2023/06/22 07:47:35;;;;;;;1725.68;999.90;;;28.00;98.20;;;;;;5023363;28;20440;-87
2023/06/22 07:50:02;;;;;;;1915.03;999.90;;;28.30;97.00;;;;;;5001045;28;20046;-92
2023/06/22 07:52:28;;;;;;;1999.90;999.90;;;28.80;97.20;;;;;;5030801;28;20038;-94
2023/06/22 07:54:54;;;;;;;1999.90;999.90;;;29.20;96.70;;;;;;5014219;28;20052;-90
2023/06/22 07:57:20;;;;;;;1999.90;999.90;;;29.70;95.80;;;;;;4996386;28;20484;-91
2023/06/22 07:59:46;;;;;;;1999.90;999.90;;;30.20;96.70;;;;;;4992548;28;20060;-88
2023/06/22 08:02:12;;;;;;;1999.90;999.90;;;30.50;95.60;;;;;;5016356;28;20116;-89
2023/06/22 08:04:38;;;;;;;1999.90;999.90;;;30.80;95.00;;;;;;5004029;28;20145;-89
2023/06/22 08:07:04;;;;;;;1999.90;999.90;;;31.00;95.00;;;;;;5013359;28;20038;-86
2023/06/22 08:09:31;;;;;;;1999.90;999.90;;;30.80;95.00;;;;;;4996318;28;20081;-92
2023/06/22 08:11:57;;;;;;;1999.90;999.90;;;30.60;94.60;;;;;;5014351;28;20140;-95
2023/06/22 08:14:26;;;;;;;1999.90;999.90;;;30.40;94.40;;;;;;5013385;28;20116;-91
2023/06/22 08:16:52;;;;;;;1999.90;999.90;;;29.80;94.60;;;;;;5013080;28;20037;-89
2023/06/22 08:19:18;;;;;;;1999.90;999.90;;;29.70;94.10;;;;;;5017163;28;20045;-91
2023/06/22 08:21:44;;;;;;;1999.90;999.90;;;29.60;95.00;;;;;;5046992;28;20033;-91
2023/06/22 08:24:09;;;;;;;1999.90;999.90;;;29.80;95.10;;;;;;5022881;28;20240;-87
2023/06/22 08:26:37;;;;;;;1999.90;999.90;;;30.00;94.40;;;;;;4999036;28;20491;-96
2023/06/22 08:29:03;;;;;;;1999.90;999.90;;;30.10;94.70;;;;;;4999447;28;20164;-89
2023/06/22 08:31:30;;;;;;;1999.90;999.90;;;30.10;94.50;;;;;;5013643;28;20044;-92
2023/06/22 08:33:56;;;;;;;1999.90;999.90;;;30.30;94.90;;;;;;5012999;28;20042;-87
2023/06/22 08:36:21;;;;;;;1999.90;999.90;;;30.40;94.60;;;;;;4996185;28;20052;-91
2023/06/22 08:38:50;;;;;;;1999.90;999.90;;;30.60;94.40;;;;;;5012127;28;20048;-89
2023/06/22 08:41:16;;;;;;;1999.90;999.90;;;30.50;93.90;;;;;;5011864;28;20037;-92
2023/06/22 08:43:43;;;;;;;1999.90;999.90;;;30.30;93.60;;;;;;5013846;28;20121;-91
2023/06/22 08:46:08;;;;;;;1999.90;999.90;;;29.80;94.30;;;;;;5012110;28;20037;-88
2023/06/22 08:48:34;;;;;;;1999.90;999.90;;;29.90;94.80;;;;;;5028826;28;20049;-95
2023/06/22 08:50:59;;;;;;;1999.90;999.90;;;29.90;94.20;;;;;;5019085;28;20381;-89
2023/06/22 08:53:25;;;;;;;1999.90;999.90;;;29.40;94.40;;;;;;5020136;28;20057;-93
2023/06/22 08:55:51;;;;;;;1999.90;999.90;;;29.50;94.90;;;;;;4996176;28;20115;-93
2023/06/22 08:58:18;;;;;;;1999.90;999.90;;;29.50;94.70;;;;;;5013061;28;20030;-95
2023/06/22 09:00:43;;;;;;;1999.90;999.90;;;29.10;94.90;;;;;;5012739;28;20045;-87
2023/06/22 09:03:09;;;;;;;1999.90;999.90;;;29.10;95.10;;;;;;5011700;28;20257;-88
2023/06/22 09:05:36;;;;;;;1999.90;999.90;;;29.10;94.80;;;;;;4994738;28;20406;-86
2023/06/22 09:08:02;;;;;;;1999.90;999.90;;;29.00;95.30;;;;;;5029683;28;20052;-89
2023/06/22 09:10:28;;;;;;;1999.90;999.90;;;28.70;95.40;;;;;;4995213;28;20435;-90
2023/06/22 09:12:53;;;;;;;1999.90;999.90;;;28.50;95.40;;;;;;5012197;28;20389;-88
2023/06/22 09:15:19;;;;;;;1999.90;999.90;;;28.30;95.50;;;;;;5015967;28;20041;-86
2023/06/22 09:17:46;;;;;;;1999.90;999.90;;;28.10;95.80;;;;;;5018709;28;20076;-89
2023/06/22 09:20:12;;;;;;;1999.90;999.90;;;28.30;95.70;;;;;;4983408;28;20034;-90
2023/06/22 09:22:37;;;;;;;1999.90;999.90;;;28.20;95.80;;;;;;5014223;28;20043;-90
2023/06/22 09:25:05;;;;;;;1999.90;999.90;;;28.00;95.80;;;;;;5013299;28;20041;-95
2023/06/22 09:27:30;;;;;;;1999.90;999.90;;;27.90;96.10;;;;;;4996918;28;20195;-87
2023/06/22 09:29:58;;;;;;;1999.90;999.90;;;27.80;96.60;;;;;;5011279;28;20120;-94
2023/06/22 09:32:25;;;;;;;1999.90;999.90;;;27.60;95.80;;;;;;5012113;28;20488;-91
2023/06/22 09:34:51;;;;;;;1999.90;999.90;;;27.80;96.30;;;;;;5030199;28;20073;-90
2023/06/22 09:37:16;;;;;;;1999.90;999.90;;;27.70;96.00;;;;;;5030302;28;20030;-92
2023/06/22 09:39:42;;;;;;;1999.90;999.90;;;27.70;96.50;;;;;;4999792;28;20147;-90
2023/06/22 09:42:08;;;;;;;1999.90;999.90;;;27.80;96.30;;;;;;5033829;28;20056;-90
2023/06/22 09:44:34;;;;;;;1999.90;999.90;;;27.80;96.40;;;;;;5000389;28;20403;-92
2023/06/22 09:47:00;;;;;;;1994.78;999.90;;;27.20;96.70;;;;;;5000776;28;20046;-90
2023/06/22 09:49:26;;;;;;;1999.90;999.90;;;27.30;96.80;;;;;;4999935;28;20579;-92
2023/06/22 09:51:52;;;;;;;1999.90;999.90;;;27.80;96.90;;;;;;5016779;28;20073;-90
2023/06/22 09:54:18;;;;;;;1999.90;999.90;;;28.20;97.10;;;;;;5002281;28;20089;-91
2023/06/22 09:56:44;;;;;;;1999.90;999.90;;;28.30;96.80;;;;;;4999894;28;20484;-84
2023/06/22 09:59:09;;;;;;;1999.90;999.90;;;28.30;96.30;;;;;;4997801;28;20036;-86
2023/06/22 10:01:35;;;;;;;1999.90;999.90;;;28.10;96.50;;;;;;5015309;28;20435;-84
2023/06/22 10:04:02;;;;;;;1999.90;999.90;;;28.00;95.90;;;;;;4997810;28;20049;-83
2023/06/22 10:06:28;;;;;;;1999.90;999.90;;;27.90;96.20;;;;;;5014449;28;20041;-83
2023/06/22 10:08:54;;;;;;;1999.90;999.90;;;28.00;95.70;;;;;;5013679;28;20696;-84
2023/06/22 10:11:19;;;;;;;1999.90;999.90;;;27.80;95.80;;;;;;5014699;28;20053;-83
2023/06/22 10:13:45;;;;;;;1999.90;999.90;;;27.70;96.50;;;;;;5032516;28;20033;-84
2023/06/22 10:16:11;;;;;;;1999.90;999.90;;;27.60;96.30;;;;;;5037635;28;20139;-85
2023/06/22 10:18:36;;;;;;;1999.90;999.90;;;27.70;96.50;;;;;;5015513;28;20483;-83
2023/06/22 10:21:02;;;;;;;1826.50;999.90;;;27.80;96.10;;;;;;4998794;28;20034;-84
2023/06/22 10:23:28;;;;;;;1870.15;999.90;;;27.60;96.10;;;;;;5013647;28;20499;-84
2023/06/22 10:25:54;;;;;;;1702.13;999.90;;;27.70;96.10;;;;;;4997305;28;20587;-84
2023/06/22 10:28:19;;;;;;;1478.93;999.90;;;27.70;96.30;;;;;;5013674;28;20042;-84
2023/06/22 10:30:45;;;;;;;1809.22;999.90;;;27.70;95.80;;;;;;4997284;28;20068;-85
2023/06/22 10:33:12;;;;;;;1638.10;999.90;;;27.50;95.90;;;;;;5013643;28;20495;-83
2023/06/22 10:35:38;;;;;;;1544.50;999.90;;;27.70;96.40;;;;;;4997867;28;20041;-86
2023/06/22 10:38:04;;;;;;;1704.68;999.90;;;27.80;96.50;;;;;;5014626;28;21425;-85
2023/06/22 10:40:30;;;;;;;1463.75;999.90;;;27.90;96.70;;;;;;5010087;28;20128;-88
2023/06/22 10:42:56;;;;;;;1694.88;999.90;;;28.00;95.90;;;;;;5032137;28;20808;-88
2023/06/22 10:45:22;;;;;;;1442.07;999.90;;;28.00;95.70;;;;;;5001347;28;20048;-88
2023/06/22 10:47:47;;;;;;;1588.10;999.90;;;27.80;96.00;;;;;;5005020;28;20063;-88
2023/06/22 10:50:13;;;;;;;1611.80;999.90;;;27.80;96.00;;;;;;5014669;28;20150;-92
2023/06/22 10:52:41;;;;;;;1769.93;999.90;;;28.00;96.10;;;;;;5020608;28;20544;-92
2023/06/22 10:55:08;;;;;;;1858.13;999.90;;;28.00;95.70;;;;;;4998778;28;20084;-91
2023/06/22 10:57:33;;;;;;;1676.80;999.90;;;28.40;96.30;;;;;;5015662;28;20049;-89
2023/06/22 10:59:59;;;;;;;1914.38;999.90;;;28.60;95.80;;;;;;5015373;28;20357;-93
2023/06/22 11:02:25;;;;;;;1999.90;999.90;;;28.50;95.90;;;;;;5015283;28;20044;-90
2023/06/22 11:04:50;;;;;;;1999.90;999.90;;;28.30;95.60;;;;;;4998402;28;20029;-89
2023/06/22 11:07:16;;;;;;;1999.90;999.90;;;28.50;95.80;;;;;;4997790;28;20171;-91
2023/06/22 11:09:45;;;;;;;1999.90;999.90;;;28.70;96.20;;;;;;5008159;28;20046;-89
2023/06/22 11:12:11;;;;;;;1999.90;999.90;;;28.40;95.40;;;;;;5007254;28;20050;-88
2023/06/22 11:14:38;;;;;;;1999.90;999.90;;;28.50;95.80;;;;;;5015688;28;20045;-89
2023/06/22 11:17:04;;;;;;;1932.50;999.90;;;28.40;95.50;;;;;;4998562;28;20505;-86
2023/06/22 11:19:29;;;;;;;1999.90;999.90;;;28.00;95.60;;;;;;4997299;28;20053;-88
2023/06/22 11:21:58;;;;;;;1999.90;999.90;;;27.90;95.70;;;;;;4997793;28;20061;-90
2023/06/22 11:24:23;;;;;;;1727.03;999.90;;;27.80;96.00;;;;;;5013752;28;20488;-88
2023/06/22 11:26:49;;;;;;;1811.78;999.90;;;27.70;96.20;;;;;;4998155;28;20099;-85
2023/06/22 11:29:15;;;;;;;1895.55;999.90;;;27.80;96.20;;;;;;4997429;28;20045;-86
2023/06/22 11:31:42;;;;;;;1935.13;999.90;;;27.70;95.50;;;;;;5014325;28;20091;-91
2023/06/22 11:34:08;;;;;;;1858.32;999.90;;;27.70;95.70;;;;;;5003863;28;20116;-89
2023/06/22 11:36:35;;;;;;;1765.88;999.90;;;27.70;96.30;;;;;;5031442;28;20077;-96
2023/06/22 11:39:01;;;;;;;1759.57;999.90;;;27.80;96.00;;;;;;5014592;28;20555;-91
2023/06/22 11:41:26;;;;;;;1999.90;999.90;;;27.80;95.70;;;;;;5033002;28;20045;-90
2023/06/22 11:43:52;;;;;;;1854.03;999.90;;;27.70;95.90;;;;;;4996839;28;20044;-85
2023/06/22 11:46:18;;;;;;;1721.07;999.90;;;27.80;96.20;;;;;;4995967;28;20046;-85
2023/06/22 11:48:44;;;;;;;1671.32;999.90;;;27.70;95.80;;;;;;4996246;28;20192;-86
2023/06/22 11:51:09;;;;;;;1994.95;999.90;;;27.80;95.70;;;;;;5011846;28;20037;-85
2023/06/22 11:53:35;;;;;;;1999.90;999.90;;;27.90;95.50;;;;;;5029942;28;20430;-84
2023/06/22 11:56:01;;;;;;;1999.90;999.90;;;28.00;95.50;;;;;;5029725;28;20069;-84
2023/06/22 11:58:27;;;;;;;1999.90;999.90;;;28.20;96.00;;;;;;5013454;28;20117;-93
2023/06/22 12:00:54;;;;;;;1999.90;999.90;;;28.20;95.10;;;;;;5014398;28;20045;-92
2023/06/22 12:03:23;;;;;;;1999.90;999.90;;;28.40;95.30;;;;;;4998341;28;20060;-92
2023/06/22 12:05:51;;;;;;;1999.90;999.90;;;28.40;95.30;;;;;;5023519;28;20041;-93
2023/06/22 12:08:17;;;;;;;1999.90;999.90;;;28.50;95.30;;;;;;5035299;28;20121;-95
